createdAt,value
2023-02-14T00:01:40.857Z,100099.97
2023-02-14T00:04:45.849Z,100103.34
2023-02-14T00:07:48.421Z,100096.28
2023-02-14T00:10:51.413Z,100098.84
2023-02-14T00:14:12.621Z,100094.41
2023-02-14T00:17:15.626Z,100088.19
2023-02-14T00:20:18.384Z,100088.97
2023-02-14T00:23:21.640Z,100075.69
2023-02-14T00:26:24.163Z,100067.75
2023-02-14T00:29:31.632Z,100081.94
2023-02-14T00:32:34.814Z,100094.37
2023-02-14T00:35:38.696Z,100099.66
2023-02-14T00:38:41.178Z,100071.84
2023-02-14T00:41:44.931Z,100075.31
2023-02-14T00:44:47.469Z,100095.94
2023-02-14T00:47:50.263Z,100096.91
2023-02-14T00:50:54.169Z,100100.53
2023-02-14T00:53:57.065Z,100101.53
2023-02-14T00:56:59.856Z,100088.44
2023-02-14T01:00:02.894Z,100087.59
2023-02-14T01:03:06.995Z,100080.56
2023-02-14T01:06:10.350Z,100085.75
2023-02-14T01:09:12.933Z,100084.66
2023-02-14T01:12:15.821Z,100075.69
2023-02-14T01:15:18.351Z,100069.44
2023-02-14T01:18:21.334Z,100066.63
2023-02-14T01:21:29.868Z,100073.66
2023-02-14T01:24:32.834Z,100065.62
2023-02-14T01:27:36.099Z,100065.59
2023-02-14T01:30:39.081Z,100039.63
2023-02-14T01:33:43.280Z,100068.19
2023-02-14T01:36:46.203Z,100069.97
2023-02-14T01:39:48.792Z,100074.37
2023-02-14T01:42:51.878Z,100067.31
2023-02-14T01:45:54.735Z,100065.50
2023-02-14T01:49:05.795Z,100066.34
2023-02-14T01:52:32.461Z,100061.88
2023-02-14T01:55:39.531Z,100062.72
2023-02-14T01:58:45.113Z,100057.22
2023-02-14T02:01:50.195Z,100055.34
2023-02-14T02:04:55.341Z,100016.06
2023-02-14T02:08:01.258Z,100043.75
2023-02-14T02:11:04.194Z,100042.78
2023-02-14T02:14:06.827Z,100032.19
2023-02-14T02:17:24.614Z,100041.78
2023-02-14T02:20:39.395Z,100039.91
2023-02-14T02:23:42.287Z,100037.22
2023-02-14T02:27:10.052Z,100036.28
2023-02-14T02:30:28.057Z,100025.59
2023-02-14T02:33:52.541Z,100031.56
2023-02-14T02:37:07.503Z,100026.13
2023-02-14T02:40:16.132Z,100018.97
2023-02-14T02:43:21.662Z,100007.47
2023-02-14T02:46:49.534Z,100009.28
2023-02-14T02:50:17.667Z,100015.41
2023-02-14T02:53:48.169Z,100020.63
2023-02-14T02:56:55.983Z,100025.91
2023-02-14T02:59:59.651Z,100026.84
2023-02-14T03:03:21.366Z,100025.03
2023-02-14T03:06:23.962Z,100024.19
2023-02-14T03:09:26.673Z,100026.03
2023-02-14T03:12:33.659Z,100021.66
2023-02-14T03:15:42.327Z,100015.75
2023-02-14T03:19:10.769Z,100016.00
2023-02-14T03:22:13.549Z,100007.34
2023-02-14T03:25:23.219Z,100012.75
2023-02-14T03:28:51.375Z,100010.16
2023-02-14T03:32:12.730Z,100017.31
2023-02-14T03:35:40.406Z,100012.94
2023-02-14T03:38:59.366Z,100004.09
2023-02-14T03:42:07.914Z,100006.72
2023-02-14T03:45:15.545Z,100011.97
2023-02-14T03:48:19.856Z,100009.22
2023-02-14T03:51:23.327Z,100007.41
2023-02-14T03:54:27.135Z,100009.94
2023-02-14T03:57:35.722Z,100020.44
2023-02-14T04:00:41.251Z,100004.56
2023-02-14T04:03:44.990Z,100008.00
2023-02-14T04:06:47.733Z,100008.84
2023-02-14T04:09:51.328Z,100015.88
2023-02-14T04:12:54.131Z,100009.69
2023-02-14T04:15:57.191Z,100011.34
2023-02-14T04:19:18.548Z,100020.94
2023-02-14T04:22:21.519Z,100018.25
2023-02-14T04:25:24.205Z,100016.37
2023-02-14T04:28:27.101Z,100018.03
2023-02-14T04:31:30.008Z,100019.78
2023-02-14T04:34:33.015Z,100023.25
2023-02-14T04:37:35.767Z,100017.09
2023-02-14T04:40:44.306Z,100011.81
2023-02-14T04:43:46.933Z,100013.69
2023-02-14T04:46:49.982Z,100012.91
2023-02-14T04:49:53.000Z,100012.91
2023-02-14T04:52:56.234Z,100014.81
2023-02-14T04:55:58.905Z,100007.94
2023-02-14T04:59:01.628Z,100013.41
2023-02-14T05:02:04.588Z,100006.53
2023-02-14T05:05:09.111Z,100004.75
2023-02-14T05:08:14.448Z,100005.69
2023-02-14T05:11:17.638Z,100004.41
2023-02-14T05:14:20.248Z,100007.28
2023-02-14T05:17:23.671Z,100016.63
2023-02-14T05:20:26.278Z,99985.91
2023-02-14T05:23:29.166Z,100023.00
2023-02-14T05:26:31.892Z,100017.50
2023-02-14T05:29:35.187Z,99991.00
2023-02-14T05:32:37.694Z,100025.66
2023-02-14T05:35:40.529Z,100018.41
2023-02-14T05:38:43.659Z,100004.56
2023-02-14T05:41:46.645Z,99992.78
2023-02-14T05:44:49.290Z,100029.00
2023-02-14T05:47:52.268Z,100019.09
2023-02-14T05:50:54.886Z,100029.50
2023-02-14T05:54:00.201Z,100021.34
2023-02-14T05:57:02.782Z,100026.50
2023-02-14T06:00:07.345Z,100022.06
2023-02-14T06:03:14.755Z,100034.19
2023-02-14T06:06:17.563Z,100029.81
2023-02-14T06:09:20.059Z,100031.56
2023-02-14T06:12:23.044Z,100050.81
2023-02-14T06:15:25.884Z,100053.34
2023-02-14T06:18:29.689Z,100056.97
2023-02-14T06:21:32.330Z,100058.22
2023-02-14T06:24:35.497Z,100063.16
2023-02-14T06:27:38.006Z,100074.59
2023-02-14T06:30:40.989Z,100081.09
2023-02-14T06:33:43.629Z,100091.19
2023-02-14T06:36:46.421Z,100076.84
2023-02-14T06:39:49.153Z,100088.16
2023-02-14T06:42:52.080Z,100087.22
2023-02-14T06:45:54.535Z,100087.13
2023-02-14T06:48:57.552Z,100095.09
2023-02-14T06:52:00.847Z,100092.50
2023-02-14T06:55:03.678Z,100096.09
2023-02-14T06:58:06.136Z,100106.84
2023-02-14T07:01:09.392Z,100108.75
2023-02-14T07:04:12.361Z,100109.03
2023-02-14T07:07:15.267Z,100114.44
2023-02-14T07:10:18.051Z,100118.13
2023-02-14T07:13:20.905Z,100117.41
2023-02-14T07:16:23.428Z,100117.56
2023-02-14T07:19:26.849Z,100111.56
2023-02-14T07:22:30.426Z,100113.62
2023-02-14T07:25:33.460Z,100110.31
2023-02-14T07:28:35.960Z,100114.16
2023-02-14T07:31:39.086Z,100112.63
2023-02-14T07:34:41.699Z,100104.06
2023-02-14T07:37:44.585Z,100113.19
2023-02-14T07:40:47.125Z,100103.81
2023-02-14T07:43:50.799Z,100114.69
2023-02-14T07:46:53.290Z,100108.78
2023-02-14T07:49:56.062Z,100117.09
2023-02-14T07:52:58.601Z,100114.69
2023-02-14T07:56:01.539Z,100121.28
2023-02-14T07:59:04.425Z,100130.53
2023-02-14T08:02:07.668Z,100127.28
2023-02-14T08:05:10.825Z,100121.38
2023-02-14T08:08:13.388Z,100124.47
2023-02-14T08:11:36.345Z,100129.19
2023-02-14T08:14:39.003Z,100124.09
2023-02-14T08:17:41.773Z,100127.06
2023-02-14T08:20:46.055Z,100128.34
2023-02-14T08:23:48.930Z,100123.28
2023-02-14T08:26:51.512Z,100123.56
2023-02-14T08:29:54.472Z,100128.28
2023-02-14T08:32:57.124Z,100127.75
2023-02-14T08:36:00.427Z,100122.50
2023-02-14T08:39:04.582Z,100129.16
2023-02-14T08:42:07.388Z,100131.28
2023-02-14T08:45:10.209Z,100137.75
2023-02-14T08:48:13.244Z,100134.47
2023-02-14T08:51:16.753Z,100133.84
2023-02-14T08:54:19.599Z,100121.66
2023-02-14T08:57:22.182Z,100119.03
2023-02-14T09:00:25.340Z,100125.37
2023-02-14T09:03:28.017Z,100129.22
2023-02-14T09:06:30.845Z,100135.66
2023-02-14T09:09:33.475Z,100126.94
2023-02-14T09:12:40.293Z,100140.31
2023-02-14T09:15:43.620Z,100141.41
2023-02-14T09:18:48.124Z,100141.47
2023-02-14T09:21:50.901Z,100138.87
2023-02-14T09:24:53.750Z,100137.12
2023-02-14T09:27:56.382Z,100142.50
2023-02-14T09:30:59.738Z,100148.75
2023-02-14T09:34:22.092Z,100154.97
2023-02-14T09:37:43.564Z,100136.25
2023-02-14T09:40:47.025Z,100162.09
2023-02-14T09:43:54.581Z,100145.94
2023-02-14T09:47:01.829Z,100156.63
2023-02-14T09:50:07.385Z,100154.78
2023-02-14T09:53:16.614Z,100144.91
2023-02-14T09:56:51.320Z,100156.63
2023-02-14T10:00:24.519Z,100152.19
2023-02-14T10:04:06.384Z,100152.09
2023-02-14T10:07:20.882Z,100143.00
2023-02-14T10:10:30.907Z,100144.28
2023-02-14T10:14:01.882Z,100153.94
2023-02-14T10:17:18.232Z,100143.97
2023-02-14T10:20:26.743Z,100133.75
2023-02-14T10:23:43.904Z,100142.41
2023-02-14T10:26:48.648Z,100132.31
2023-02-14T10:29:52.201Z,100131.47
2023-02-14T10:33:08.282Z,100134.00
2023-02-14T10:36:25.089Z,100131.66
2023-02-14T10:39:49.540Z,100128.47
2023-02-14T10:43:05.303Z,100120.41
2023-02-14T10:46:38.877Z,100115.75
2023-02-14T10:49:47.212Z,100119.47
2023-02-14T10:53:05.538Z,100109.31
2023-02-14T10:56:15.759Z,100116.03
2023-02-14T10:59:25.379Z,100107.53
2023-02-14T11:02:37.933Z,100105.19
2023-02-14T11:05:46.778Z,100103.62
2023-02-14T11:08:49.710Z,100108.94
2023-02-14T11:11:55.360Z,100097.63
2023-02-14T11:15:14.949Z,100114.41
2023-02-14T11:18:33.089Z,100106.97
2023-02-14T11:21:40.817Z,100096.78
2023-02-14T11:24:45.422Z,100097.44
2023-02-14T11:27:51.079Z,100096.12
2023-02-14T11:30:53.911Z,100094.03
2023-02-14T11:33:57.881Z,100110.00
2023-02-14T11:37:00.989Z,100095.94
2023-02-14T11:40:05.307Z,100094.66
2023-02-14T11:43:14.425Z,100097.81
2023-02-14T11:46:20.712Z,100103.56
2023-02-14T11:49:32.131Z,100092.53
2023-02-14T11:52:53.247Z,100105.09
2023-02-14T11:55:58.432Z,100095.63
2023-02-14T11:59:03.824Z,100089.25
2023-02-14T12:02:32.863Z,100088.81
2023-02-14T12:05:43.698Z,100087.53
2023-02-14T12:08:46.923Z,100092.03
2023-02-14T12:12:05.059Z,100094.16
2023-02-14T12:15:27.086Z,100092.41
2023-02-14T12:18:39.317Z,100083.09
2023-02-14T12:22:03.943Z,100083.66
2023-02-14T12:25:17.523Z,100069.78
2023-02-14T12:28:24.989Z,100077.44
2023-02-14T12:31:28.060Z,100075.69
2023-02-14T12:34:30.614Z,100062.22
2023-02-14T12:38:03.894Z,100067.87
2023-02-14T12:41:17.138Z,100068.97
2023-02-14T12:44:36.466Z,100069.94
2023-02-14T12:47:46.828Z,100063.56
2023-02-14T12:50:57.664Z,100062.22
2023-02-14T12:54:21.861Z,100063.94
2023-02-14T12:57:32.011Z,100054.44
2023-02-14T13:00:59.440Z,100051.00
2023-02-14T13:04:05.252Z,100047.19
2023-02-14T13:07:16.698Z,100050.66
2023-02-14T13:10:24.679Z,100043.13
2023-02-14T13:13:33.294Z,100038.69
2023-02-14T13:17:06.278Z,100034.94
2023-02-14T13:20:08.747Z,100027.88
2023-02-14T13:23:35.618Z,100028.66
2023-02-14T13:26:40.615Z,100030.22
2023-02-14T13:29:47.219Z,100027.06
2023-02-14T13:32:51.283Z,100018.16
2023-02-14T13:36:01.029Z,100028.16
2023-02-14T13:39:04.233Z,100025.09
2023-02-14T13:42:07.655Z,100021.66
2023-02-14T13:45:34.995Z,100020.50
2023-02-14T13:48:39.209Z,100005.34
2023-02-14T13:51:49.822Z,100017.34
2023-02-14T13:55:01.803Z,100025.88
2023-02-14T13:58:07.088Z,100023.91
2023-02-14T14:01:50.260Z,100015.59
2023-02-14T14:04:53.142Z,100016.00
2023-02-14T14:08:20.594Z,100018.22
2023-02-14T14:11:23.425Z,100019.31
2023-02-14T14:14:36.271Z,100027.53
2023-02-14T14:17:46.112Z,100031.41
2023-02-14T14:20:48.925Z,100030.06
2023-02-14T14:24:13.802Z,100030.19
2023-02-14T14:27:20.434Z,100032.97
2023-02-14T14:30:31.269Z,100006.34
2023-02-14T14:33:34.906Z,100025.09
2023-02-14T14:36:37.875Z,100025.06
2023-02-14T14:39:40.436Z,100026.16
2023-02-14T14:42:43.412Z,100030.69
2023-02-14T14:45:47.296Z,100030.03
2023-02-14T14:48:51.976Z,100035.50
2023-02-14T14:51:56.468Z,100017.75
2023-02-14T14:55:00.096Z,100019.63
2023-02-14T14:58:05.084Z,100014.34
2023-02-14T15:01:13.262Z,100015.31
2023-02-14T15:04:25.462Z,100012.63
2023-02-14T15:07:34.916Z,100014.47
2023-02-14T15:10:37.613Z,100023.50
2023-02-14T15:13:49.898Z,100016.41
2023-02-14T15:16:57.634Z,100017.31
2023-02-14T15:20:04.410Z,100013.81
2023-02-14T15:23:07.868Z,100011.16
2023-02-14T15:26:34.073Z,100019.25
2023-02-14T15:29:36.727Z,100007.66
2023-02-14T15:32:39.630Z,100013.97
2023-02-14T15:35:42.575Z,100013.97
2023-02-14T15:38:51.214Z,100016.72
2023-02-14T15:41:55.579Z,100014.94
2023-02-14T15:45:22.515Z,100028.34
2023-02-14T15:48:30.687Z,100018.56
2023-02-14T15:51:36.356Z,100011.44
2023-02-14T15:54:42.854Z,100023.03
2023-02-14T15:57:49.786Z,100035.53
2023-02-14T16:00:53.191Z,100033.72
2023-02-14T16:03:59.894Z,100030.13
2023-02-14T16:07:23.983Z,100032.78
2023-02-14T16:10:29.894Z,100037.13
2023-02-14T16:13:35.247Z,100032.59
2023-02-14T16:17:01.633Z,100032.56
2023-02-14T16:20:28.029Z,100038.72
2023-02-14T16:23:31.566Z,100044.94
2023-02-14T16:26:38.180Z,100040.47
2023-02-14T16:29:41.588Z,100053.75
2023-02-14T16:32:50.172Z,100056.34
2023-02-14T16:35:53.366Z,100051.88
2023-02-14T16:38:56.872Z,100052.81
2023-02-14T16:41:59.842Z,100056.31
2023-02-14T16:45:02.394Z,100054.53
2023-02-14T16:48:05.745Z,100029.47
2023-02-14T16:51:14.107Z,100054.34
2023-02-14T16:54:20.658Z,100032.88
2023-02-14T16:57:28.698Z,100058.66
2023-02-14T17:00:31.791Z,100037.94
2023-02-14T17:03:34.616Z,100059.28
2023-02-14T17:06:39.749Z,100069.06
2023-02-14T17:09:50.289Z,100044.97
2023-02-14T17:12:53.421Z,100070.87
2023-02-14T17:15:56.768Z,100071.72
2023-02-14T17:19:02.337Z,100077.09
2023-02-14T17:22:05.008Z,100074.37
2023-02-14T17:25:09.048Z,100074.31
2023-02-14T17:28:11.654Z,100066.22
2023-02-14T17:31:14.841Z,100071.37
2023-02-14T17:34:17.464Z,100062.44
2023-02-14T17:37:20.845Z,100064.25
2023-02-14T17:40:23.707Z,100069.56
2023-02-14T17:43:26.969Z,100071.25
2023-02-14T17:46:30.900Z,100072.94
2023-02-14T17:49:34.211Z,100076.44
2023-02-14T17:52:37.923Z,100073.69
2023-02-14T17:55:41.071Z,100075.47
2023-02-14T17:58:44.293Z,100067.50
2023-02-14T18:01:47.903Z,100073.59
2023-02-14T18:04:51.157Z,100057.53
2023-02-14T18:07:53.974Z,100040.50
2023-02-14T18:10:57.167Z,100042.34
2023-02-14T18:14:01.826Z,100066.44
2023-02-14T18:17:04.845Z,100059.28
2023-02-14T18:20:08.084Z,100063.63
2023-02-14T18:23:11.257Z,100061.59
2023-02-14T18:26:16.798Z,100061.13
2023-02-14T18:29:20.570Z,100060.00
2023-02-14T18:32:23.855Z,100058.94
2023-02-14T18:35:26.775Z,100049.81
2023-02-14T18:38:29.754Z,100060.22
2023-02-14T18:41:33.205Z,100065.38
2023-02-14T18:44:36.318Z,100060.81
2023-02-14T18:47:39.152Z,100065.19
2023-02-14T18:50:41.965Z,100063.34
2023-02-14T18:53:45.792Z,100055.81
2023-02-14T18:56:48.601Z,100050.75
2023-02-14T18:59:52.004Z,100059.50
2023-02-14T19:02:56.898Z,100060.31
2023-02-14T19:06:00.372Z,100058.44
2023-02-14T19:09:06.973Z,100066.31
2023-02-14T19:12:11.842Z,100063.63
2023-02-14T19:15:14.626Z,100061.78
2023-02-14T19:18:17.797Z,100058.19
2023-02-14T19:21:23.677Z,100052.22
2023-02-14T19:24:30.002Z,100050.91
2023-02-14T19:27:34.037Z,100053.31
2023-02-14T19:30:37.673Z,99944.16
2023-02-14T19:33:43.020Z,100047.50
2023-02-14T19:36:46.481Z,100048.22
2023-02-14T19:39:49.477Z,100047.28
2023-02-14T19:42:53.339Z,100050.78
2023-02-14T19:45:57.198Z,100050.72
2023-02-14T19:49:01.520Z,100022.09
2023-02-14T19:52:06.254Z,100047.03
2023-02-14T19:55:21.811Z,100054.97
2023-02-14T19:58:26.074Z,100055.66
2023-02-14T20:01:33.777Z,100060.66
2023-02-14T20:04:37.137Z,100058.72
2023-02-14T20:07:40.039Z,100063.06
2023-02-14T20:10:43.513Z,100054.94
2023-02-14T20:13:46.382Z,100048.56
2023-02-14T20:16:50.466Z,100052.94
2023-02-14T20:19:53.633Z,100052.16
2023-02-14T20:22:56.831Z,100053.09
2023-02-14T20:25:59.838Z,100058.38
2023-02-14T20:29:05.400Z,100057.44
2023-02-14T20:32:09.491Z,100057.31
2023-02-14T20:35:13.543Z,100049.19
2023-02-14T20:38:16.794Z,100047.31
2023-02-14T20:41:20.562Z,100057.84
2023-02-14T20:44:23.813Z,100049.88
2023-02-14T20:47:26.956Z,100052.62
2023-02-14T20:50:31.121Z,100054.59
2023-02-14T20:53:34.242Z,100049.47
2023-02-14T20:56:39.267Z,100045.16
2023-02-14T20:59:44.844Z,100042.50
2023-02-14T21:02:47.723Z,100049.63
2023-02-14T21:05:50.803Z,100047.81
2023-02-14T21:08:53.681Z,100040.59
2023-02-14T21:11:58.380Z,100049.44
2023-02-14T21:15:01.368Z,100047.59
2023-02-14T21:18:05.251Z,100053.81
2023-02-14T21:21:13.013Z,100043.91
2023-02-14T21:24:16.449Z,100053.53
2023-02-14T21:27:19.395Z,100033.56
2023-02-14T21:30:22.876Z,100053.13
2023-02-14T21:33:25.763Z,100026.13
2023-02-14T21:36:31.296Z,100051.94
2023-02-14T21:39:35.804Z,100053.63
2023-02-14T21:42:39.467Z,100056.06
2023-02-14T21:45:53.412Z,100069.19
2023-02-14T21:49:19.227Z,100067.28
2023-02-14T21:52:22.175Z,100060.09
2023-02-14T21:55:25.363Z,100065.28
2023-02-14T21:58:28.574Z,100062.53
2023-02-14T22:01:34.627Z,100064.25
2023-02-14T22:04:38.131Z,100057.13
2023-02-14T22:07:41.102Z,100070.28
2023-02-14T22:10:44.007Z,100062.28
2023-02-14T22:13:46.924Z,100064.91
2023-02-14T22:16:49.911Z,100063.91
2023-02-14T22:19:52.744Z,100054.13
2023-02-14T22:22:55.644Z,100062.94
2023-02-14T22:26:11.154Z,100067.37
2023-02-14T22:29:14.022Z,100070.87
2023-02-14T22:32:17.630Z,100071.03
2023-02-14T22:35:20.615Z,100067.59
2023-02-14T22:38:23.654Z,100065.88
2023-02-14T22:41:26.694Z,100075.47
2023-02-14T22:44:29.232Z,100074.50
2023-02-14T22:47:32.444Z,100069.12
2023-02-14T22:50:35.644Z,100050.22
2023-02-14T22:53:39.251Z,100070.72
2023-02-14T22:56:51.540Z,100076.81
2023-02-14T22:59:54.460Z,100069.62
2023-02-14T23:02:57.174Z,100066.88
2023-02-14T23:06:00.752Z,100068.56
2023-02-14T23:09:05.717Z,100065.91
2023-02-14T23:12:28.674Z,100066.75
2023-02-14T23:15:50.351Z,100062.28
2023-02-14T23:19:11.806Z,100064.84
2023-02-14T23:22:19.454Z,100058.66
2023-02-14T23:25:22.243Z,100055.34
2023-02-14T23:28:25.241Z,100027.69
2023-02-14T23:31:28.194Z,100060.69
2023-02-14T23:34:32.558Z,100061.50
2023-02-14T23:37:35.456Z,100060.56
2023-02-14T23:40:56.848Z,100059.62
2023-02-14T23:43:59.857Z,100052.53
2023-02-14T23:47:04.588Z,100055.97
2023-02-14T23:50:07.985Z,100061.97
2023-02-14T23:53:10.566Z,100054.78
2023-02-14T23:56:13.530Z,100053.94
2023-02-14T23:59:16.530Z,100053.72
